Time;durP1;ratioP1;P1;durP2;ratioP2;P2;SDS_P1;SDS_P2;PMS_P1;PMS_P2;Temp;Humidity;BMP_temperature;BMP_pressure;BME280_temperature;BME280_humidity;BME280_pressure;Samples;Min_cycle;Max_cycle;Signal;HPM_P1;HPM_P2
2020/12/07 00:00:22;;;;;;;6.68;1.50;;;6.90;93.30;;;;;;5063748;28;20048;-69
2020/12/07 00:03:08;;;;;;;7.55;2.00;;;6.90;93.20;;;;;;5083201;28;20059;-69
2020/12/07 00:05:34;;;;;;;17.15;2.40;;;6.90;93.30;;;;;;5044122;28;20049;-68
2020/12/07 00:08:19;;;;;;;11.45;1.92;;;6.90;93.40;;;;;;5050912;28;20098;-68
2020/12/07 00:10:45;;;;;;;14.50;2.75;;;6.90;93.40;;;;;;5064103;28;20071;-68
2020/12/07 00:13:10;;;;;;;9.23;2.65;;;7.00;93.40;;;;;;5064303;28;20037;-67
2020/12/07 00:15:56;;;;;;;9.23;2.30;;;7.00;93.40;;;;;;5049537;28;20517;-67
2020/12/07 00:18:21;;;;;;;9.63;1.90;;;6.90;93.40;;;;;;5063036;28;20489;-68
2020/12/07 00:20:47;;;;;;;11.00;3.20;;;6.90;93.40;;;;;;5063939;28;20047;-68
2020/12/07 00:23:13;;;;;;;10.00;1.90;;;7.00;93.30;;;;;;5063187;28;20136;-68
2020/12/07 00:25:39;;;;;;;6.28;1.85;;;7.00;93.30;;;;;;5062768;28;20060;-68
2020/12/07 00:28:05;;;;;;;17.27;3.60;;;7.00;93.40;;;;;;5063566;28;20056;-68
2020/12/07 00:30:31;;;;;;;12.30;2.45;;;7.00;93.40;;;;;;5063435;28;20688;-68
2020/12/07 00:33:16;;;;;;;11.10;2.50;;;7.00;93.40;;;;;;5061579;28;20453;-67
2020/12/07 00:36:03;;;;;;;6.80;2.78;;;7.00;93.40;;;;;;5062283;28;20467;-68
2020/12/07 00:38:29;;;;;;;10.13;2.95;;;7.00;93.50;;;;;;5063641;28;20040;-68
2020/12/07 00:41:21;;;;;;;19.05;3.67;;;7.00;93.50;;;;;;5062795;28;20046;-69
2020/12/07 00:43:47;;;;;;;9.93;2.70;;;7.10;93.60;;;;;;5063817;28;20509;-68
2020/12/07 00:46:36;;;;;;;14.18;3.00;;;7.00;93.60;;;;;;5062015;28;20044;-69
2020/12/07 00:49:01;;;;;;;20.95;3.50;;;7.00;93.60;;;;;;5063408;28;20090;-68
2020/12/07 00:51:27;;;;;;;10.85;2.65;;;7.00;93.60;;;;;;5067785;28;20040;-68
2020/12/07 00:53:52;;;;;;;14.80;3.13;;;7.00;93.60;;;;;;5067497;28;20082;-69
2020/12/07 00:56:18;;;;;;;13.68;3.38;;;7.00;93.70;;;;;;5068308;28;20121;-69
2020/12/07 00:58:44;;;;;;;15.05;3.10;;;7.00;93.90;;;;;;5062273;28;20045;-68
2020/12/07 01:01:29;;;;;;;11.63;3.63;;;7.00;94.00;;;;;;5074655;28;20045;-68
2020/12/07 01:03:55;;;;;;;21.55;5.07;;;7.00;94.10;;;;;;5064888;28;20056;-69
2020/12/07 01:06:30;;;;;;;20.02;4.03;;;7.00;94.10;;;;;;5067573;28;20469;-68
2020/12/07 01:08:56;;;;;;;12.30;3.55;;;7.10;94.20;;;;;;5066375;28;20045;-68
2020/12/07 01:11:21;;;;;;;16.60;4.78;;;7.10;94.20;;;;;;5067775;28;20476;-68
2020/12/07 01:14:08;;;;;;;11.45;4.00;;;7.10;94.20;;;;;;5065749;28;20041;-69
2020/12/07 01:16:35;;;;;;;16.75;3.63;;;7.10;94.10;;;;;;5067390;28;20045;-68
2020/12/07 01:19:24;;;;;;;15.68;3.63;;;7.10;94.20;;;;;;5045789;28;20553;-68
2020/12/07 01:21:49;;;;;;;20.00;4.95;;;7.10;94.10;;;;;;5051957;28;20056;-68
2020/12/07 01:24:15;;;;;;;18.02;4.18;;;7.10;94.30;;;;;;5067576;28;20063;-68
2020/12/07 01:26:41;;;;;;;14.45;4.00;;;7.10;94.20;;;;;;5066133;28;20044;-68
2020/12/07 01:29:27;;;;;;;13.85;4.80;;;7.10;94.10;;;;;;5066085;28;20135;-68
2020/12/07 01:31:53;;;;;;;14.35;4.93;;;7.10;94.00;;;;;;5066942;28;20127;-68
2020/12/07 01:34:19;;;;;;;12.48;4.95;;;7.10;94.10;;;;;;5066271;28;20059;-68
2020/12/07 01:37:04;;;;;;;18.23;5.10;;;7.10;94.10;;;;;;5066350;28;20041;-67
2020/12/07 01:39:30;;;;;;;16.48;4.68;;;7.10;94.20;;;;;;5066425;28;20094;-68
2020/12/07 01:41:55;;;;;;;17.08;5.13;;;7.10;94.20;;;;;;5066423;28;20055;-68
2020/12/07 01:44:21;;;;;;;14.68;5.28;;;7.10;94.10;;;;;;5067463;28;20489;-68
2020/12/07 01:46:47;;;;;;;8.05;4.75;;;7.10;94.20;;;;;;5066833;28;20036;-68
2020/12/07 01:49:32;;;;;;;18.35;6.15;;;7.10;94.10;;;;;;5052170;28;20048;-67
2020/12/07 01:52:20;;;;;;;9.77;4.70;;;7.10;94.20;;;;;;5064852;28;20132;-70
2020/12/07 01:55:06;;;;;;;18.20;5.43;;;7.10;94.00;;;;;;5065964;28;20474;-70
2020/12/07 01:57:31;;;;;;;11.95;4.55;;;7.10;94.30;;;;;;5065847;28;20040;-68
2020/12/07 01:59:57;;;;;;;13.98;4.43;;;7.10;94.10;;;;;;5065508;28;20055;-67
2020/12/07 02:02:42;;;;;;;15.23;4.57;;;7.10;94.10;;;;;;5062837;28;20059;-68
2020/12/07 02:05:08;;;;;;;12.90;5.55;;;7.20;94.00;;;;;;5066881;28;20044;-69
2020/12/07 02:07:34;;;;;;;9.07;4.72;;;7.10;94.00;;;;;;5066833;28;20040;-68
2020/12/07 02:09:59;;;;;;;15.52;5.00;;;7.10;94.00;;;;;;5066552;28;20622;-68
2020/12/07 02:12:25;;;;;;;11.20;4.93;;;7.10;94.00;;;;;;5065485;28;20127;-68
2020/12/07 02:14:50;;;;;;;16.80;5.28;;;7.10;94.10;;;;;;5067283;28;20044;-69
2020/12/07 02:17:16;;;;;;;15.20;5.13;;;7.10;94.10;;;;;;5065311;28;20382;-68
2020/12/07 02:20:02;;;;;;;12.52;4.72;;;7.10;94.00;;;;;;5065398;28;20413;-69
2020/12/07 02:22:28;;;;;;;13.27;4.55;;;7.10;94.10;;;;;;5065475;28;20256;-68
2020/12/07 02:25:13;;;;;;;10.98;4.65;;;7.10;94.10;;;;;;5064472;28;20634;-68
2020/12/07 02:27:39;;;;;;;15.50;5.20;;;7.10;94.20;;;;;;5066545;28;20055;-69
2020/12/07 02:30:05;;;;;;;10.15;5.43;;;7.10;94.20;;;;;;5065227;28;20443;-68
2020/12/07 02:32:52;;;;;;;10.88;5.80;;;7.10;94.20;;;;;;5064435;28;20564;-69
2020/12/07 02:35:37;;;;;;;15.38;5.45;;;7.10;94.20;;;;;;5064811;28;20053;-68
2020/12/07 02:38:03;;;;;;;12.77;5.50;;;7.10;94.20;;;;;;5055830;28;20500;-68
2020/12/07 02:40:29;;;;;;;12.63;6.03;;;7.10;94.50;;;;;;5045691;28;20187;-68
2020/12/07 02:42:54;;;;;;;18.35;5.47;;;7.10;94.20;;;;;;5083318;28;20053;-68
2020/12/07 02:45:40;;;;;;;12.18;5.18;;;7.10;94.30;;;;;;5064672;28;20193;-68
2020/12/07 02:48:05;;;;;;;11.95;5.75;;;7.10;94.20;;;;;;5064796;28;20124;-67
2020/12/07 02:50:51;;;;;;;15.68;5.88;;;7.10;94.30;;;;;;5065513;28;20051;-68
2020/12/07 02:53:36;;;;;;;11.60;6.03;;;7.10;94.30;;;;;;5057757;28;20049;-68
2020/12/07 02:56:03;;;;;;;12.50;5.80;;;7.10;94.30;;;;;;5045640;28;20048;-67
2020/12/07 02:58:29;;;;;;;11.00;5.05;;;7.10;94.30;;;;;;5061200;28;20048;-68
2020/12/07 03:00:55;;;;;;;17.67;6.72;;;7.10;94.30;;;;;;5064708;28;20040;-68
2020/12/07 03:03:20;;;;;;;13.48;5.25;;;7.10;94.30;;;;;;5063612;28;20044;-68
2020/12/07 03:05:46;;;;;;;11.30;6.03;;;7.10;94.40;;;;;;5065298;28;20178;-68
2020/12/07 03:08:31;;;;;;;12.75;5.78;;;7.10;94.40;;;;;;5063053;28;20048;-69
2020/12/07 03:11:17;;;;;;;16.48;6.45;;;7.10;94.40;;;;;;5064416;28;20048;-68
2020/12/07 03:13:42;;;;;;;15.80;6.72;;;7.10;94.40;;;;;;5065051;28;20044;-68
2020/12/07 03:16:08;;;;;;;10.80;5.75;;;7.10;94.40;;;;;;5065280;28;20048;-67
2020/12/07 03:18:34;;;;;;;12.57;5.72;;;7.10;94.40;;;;;;5063478;28;20051;-67
2020/12/07 03:20:59;;;;;;;13.60;6.07;;;7.10;94.40;;;;;;5065324;28;20098;-69
2020/12/07 03:23:25;;;;;;;16.17;5.90;;;7.10;94.40;;;;;;5064064;28;20052;-68
2020/12/07 03:25:50;;;;;;;10.52;5.75;;;7.10;94.50;;;;;;5065188;28;20367;-68
2020/12/07 03:28:16;;;;;;;13.95;6.40;;;7.10;94.50;;;;;;5064750;28;20404;-68
2020/12/07 03:30:42;;;;;;;12.10;5.72;;;7.10;94.50;;;;;;5064919;28;20057;-69
2020/12/07 03:33:28;;;;;;;16.58;7.68;;;7.10;94.40;;;;;;5062770;28;20055;-70
2020/12/07 03:35:53;;;;;;;15.88;5.60;;;7.10;94.30;;;;;;5065077;28;20040;-68
2020/12/07 03:38:19;;;;;;;12.02;6.40;;;7.10;94.30;;;;;;5064087;28;20403;-66
2020/12/07 03:41:04;;;;;;;9.88;5.68;;;7.20;94.30;;;;;;5063888;28;20098;-69
2020/12/07 03:43:30;;;;;;;12.43;6.35;;;7.10;94.30;;;;;;5064189;28;20419;-68
2020/12/07 03:45:55;;;;;;;11.70;5.75;;;7.10;94.40;;;;;;5064649;28;20044;-68
2020/12/07 03:48:21;;;;;;;9.40;5.40;;;7.10;94.40;;;;;;5063368;28;20036;-68
2020/12/07 03:50:46;;;;;;;11.40;5.47;;;7.10;94.40;;;;;;5064793;28;20389;-68
2020/12/07 03:53:12;;;;;;;8.82;5.97;;;7.10;94.50;;;;;;5064312;28;20066;-68
2020/12/07 03:55:37;;;;;;;16.00;6.80;;;7.10;94.50;;;;;;5064143;28;20052;-68
2020/12/07 03:58:03;;;;;;;16.58;6.10;;;7.10;94.30;;;;;;5064296;28;20040;-68
2020/12/07 04:00:29;;;;;;;12.10;5.90;;;7.10;94.40;;;;;;5063939;28;20140;-68
2020/12/07 04:02:54;;;;;;;7.07;5.15;;;7.10;94.40;;;;;;5063249;28;20040;-68
2020/12/07 04:05:34;;;;;;;13.35;5.53;;;7.10;94.40;;;;;;5064461;28;20044;-68
2020/12/07 04:08:00;;;;;;;10.05;5.28;;;7.10;94.50;;;;;;5064391;28;20127;-68
2020/12/07 04:10:25;;;;;;;10.60;5.45;;;7.10;94.50;;;;;;5063809;28;20573;-68
2020/12/07 04:13:11;;;;;;;9.82;5.68;;;7.10;94.40;;;;;;5042742;28;20049;-68
2020/12/07 04:15:37;;;;;;;10.77;5.63;;;7.00;94.50;;;;;;5043785;28;20103;-67
2020/12/07 04:18:03;;;;;;;7.82;5.18;;;7.00;94.50;;;;;;5062711;28;20040;-67
2020/12/07 04:20:28;;;;;;;14.13;5.93;;;7.00;94.50;;;;;;5063905;28;20076;-68
2020/12/07 04:22:54;;;;;;;15.02;6.55;;;7.00;94.50;;;;;;5061971;28;20121;-67
2020/12/07 04:25:20;;;;;;;15.15;7.00;;;7.00;94.60;;;;;;5044013;28;20080;-68
2020/12/07 04:27:45;;;;;;;16.48;6.45;;;7.00;94.80;;;;;;5059941;28;20376;-68
2020/12/07 04:30:31;;;;;;;10.02;6.05;;;7.00;94.60;;;;;;5045079;28;20072;-67
2020/12/07 04:32:57;;;;;;;13.23;5.95;;;7.00;94.60;;;;;;5061637;28;20607;-68
2020/12/07 04:35:23;;;;;;;9.73;5.90;;;7.00;94.50;;;;;;5061306;28;20127;-67
2020/12/07 04:37:48;;;;;;;7.40;4.70;;;7.00;94.50;;;;;;5064522;28;20409;-69
2020/12/07 04:40:14;;;;;;;13.65;5.88;;;7.00;94.50;;;;;;5062778;28;20143;-68
2020/12/07 04:43:00;;;;;;;17.08;6.78;;;7.00;94.60;;;;;;5074213;28;20148;-68
2020/12/07 04:45:25;;;;;;;11.07;5.90;;;7.00;94.70;;;;;;5043378;28;20136;-68
2020/12/07 04:47:53;;;;;;;11.27;5.03;;;7.00;94.60;;;;;;5059623;28;20060;-68
2020/12/07 04:50:39;;;;;;;13.27;5.82;;;7.00;94.60;;;;;;5063030;28;20059;-68
2020/12/07 04:53:05;;;;;;;13.25;5.25;;;7.00;94.60;;;;;;5063057;28;20041;-68
2020/12/07 04:55:50;;;;;;;12.25;5.32;;;7.00;94.50;;;;;;5062700;28;20052;-68
2020/12/07 04:58:16;;;;;;;12.82;5.70;;;7.00;94.50;;;;;;5057969;28;20049;-68
2020/12/07 05:00:42;;;;;;;13.45;6.20;;;7.00;94.60;;;;;;5043899;28;20075;-68
2020/12/07 05:03:08;;;;;;;10.55;5.30;;;7.10;94.60;;;;;;5056854;28;20465;-67
2020/12/07 05:05:54;;;;;;;11.80;6.20;;;7.10;94.60;;;;;;5070746;28;20045;-68
2020/12/07 05:08:19;;;;;;;12.60;6.88;;;7.00;94.60;;;;;;5058555;28;20071;-68
2020/12/07 05:10:47;;;;;;;17.23;9.50;;;7.10;94.60;;;;;;5043586;28;20124;-68
2020/12/07 05:13:58;;;;;;;13.98;6.90;;;7.10;94.60;;;;;;5060958;28;20151;-67
2020/12/07 05:16:01;;;;;;;11.65;7.78;;;7.00;94.70;;;;;;5065855;28;20277;-67
2020/12/07 05:18:27;;;;;;;14.05;6.93;;;7.10;94.70;;;;;;5059682;28;20047;-68
2020/12/07 05:20:53;;;;;;;11.35;6.53;;;7.10;94.60;;;;;;5063285;28;20118;-68
2020/12/07 05:23:44;;;;;;;9.00;5.93;;;7.10;94.60;;;;;;5050136;28;20059;-67
2020/12/07 05:26:10;;;;;;;12.18;6.80;;;7.10;94.60;;;;;;5063447;28;20072;-68
2020/12/07 05:28:44;;;;;;;12.40;6.80;;;7.00;94.70;;;;;;5055152;28;20065;-66
2020/12/07 05:31:17;;;;;;;11.90;6.32;;;7.00;94.70;;;;;;5076431;28;20405;-66
2020/12/07 05:33:48;;;;;;;10.57;5.93;;;7.10;94.70;;;;;;5050228;28;20093;-68
2020/12/07 05:36:34;;;;;;;9.75;5.88;;;7.10;94.70;;;;;;5064301;28;20413;-68
2020/12/07 05:39:02;;;;;;;12.30;5.97;;;7.00;94.70;;;;;;5066401;28;20042;-68
2020/12/07 05:41:48;;;;;;;16.30;6.37;;;7.00;94.90;;;;;;5065628;28;20294;-68
2020/12/07 05:44:15;;;;;;;9.63;6.07;;;7.10;94.80;;;;;;5066429;28;20114;-67
2020/12/07 05:47:02;;;;;;;14.10;6.25;;;7.00;94.70;;;;;;5064616;28;20106;-67
2020/12/07 05:49:50;;;;;;;10.48;5.47;;;7.00;94.70;;;;;;5065878;28;20056;-67
2020/12/07 05:52:39;;;;;;;9.00;5.85;;;7.10;94.70;;;;;;5066615;28;20059;-67
2020/12/07 05:55:05;;;;;;;12.75;5.78;;;7.00;94.60;;;;;;5066457;28;20511;-68
2020/12/07 05:57:56;;;;;;;12.90;5.70;;;7.00;94.60;;;;;;5065757;28;20044;-68
2020/12/07 06:00:23;;;;;;;21.05;7.47;;;7.00;94.70;;;;;;5066659;28;20049;-68
2020/12/07 06:02:51;;;;;;;17.75;7.35;;;7.00;94.70;;;;;;5064367;28;20412;-69
2020/12/07 06:05:18;;;;;;;12.25;5.38;;;6.90;94.80;;;;;;5066455;28;20407;-69
2020/12/07 06:07:51;;;;;;;14.23;4.72;;;7.00;94.70;;;;;;5064955;28;20052;-68
2020/12/07 06:10:18;;;;;;;12.45;5.45;;;7.00;94.60;;;;;;5066492;28;20083;-68
2020/12/07 06:12:49;;;;;;;12.48;7.00;;;7.00;94.60;;;;;;5065110;28;20071;-69
2020/12/07 06:15:19;;;;;;;9.52;5.88;;;7.00;94.80;;;;;;5065134;28;20040;-68
2020/12/07 06:17:51;;;;;;;10.70;6.40;;;6.90;94.80;;;;;;5065328;28;20117;-69
2020/12/07 06:20:37;;;;;;;18.63;6.45;;;7.00;94.80;;;;;;5054964;28;20048;-68
2020/12/07 06:23:34;;;;;;;13.05;5.30;;;7.00;94.90;;;;;;5064372;28;20056;-69
2020/12/07 06:26:01;;;;;;;18.63;6.75;;;7.00;94.90;;;;;;5046275;28;20140;-68
2020/12/07 06:28:31;;;;;;;18.23;6.70;;;6.90;95.00;;;;;;5064326;28;20082;-68
2020/12/07 06:31:05;;;;;;;25.45;8.52;;;6.90;95.10;;;;;;5064656;28;20044;-68
2020/12/07 06:33:38;;;;;;;14.90;6.80;;;6.90;95.20;;;;;;5065576;28;20052;-66
2020/12/07 06:36:36;;;;;;;16.63;9.50;;;6.90;95.30;;;;;;5044932;28;20569;-69
2020/12/07 06:39:11;;;;;;;14.93;5.85;;;7.00;95.30;;;;;;5064836;28;20057;-68
2020/12/07 06:41:58;;;;;;;12.57;5.15;;;7.00;95.30;;;;;;5065051;28;20048;-69
2020/12/07 06:44:26;;;;;;;16.50;6.22;;;7.00;95.30;;;;;;5064202;28;20519;-68
2020/12/07 06:47:25;;;;;;;13.48;5.10;;;7.00;95.20;;;;;;5063592;28;20391;-68
2020/12/07 06:49:56;;;;;;;13.95;5.80;;;7.00;95.10;;;;;;5064616;28;20137;-68
2020/12/07 06:52:24;;;;;;;7.75;4.30;;;7.10;95.10;;;;;;5065207;28;20063;-69
2020/12/07 06:55:11;;;;;;;8.23;4.93;;;7.10;95.10;;;;;;5064368;28;20165;-68
2020/12/07 06:57:56;;;;;;;20.98;6.78;;;7.00;95.10;;;;;;5051033;28;20135;-68
2020/12/07 07:00:27;;;;;;;15.55;4.10;;;7.00;95.10;;;;;;5063561;28;20147;-68
2020/12/07 07:02:58;;;;;;;11.48;4.22;;;7.00;95.20;;;;;;5064588;28;20106;-68
2020/12/07 07:05:27;;;;;;;13.90;3.95;;;7.00;95.10;;;;;;5063469;28;20044;-68
2020/12/07 07:07:53;;;;;;;12.15;3.25;;;7.00;95.10;;;;;;5063753;28;20040;-67
2020/12/07 07:10:19;;;;;;;10.00;2.80;;;7.00;95.00;;;;;;5063324;28;20049;-69
2020/12/07 07:13:07;;;;;;;18.50;3.65;;;7.00;94.90;;;;;;5048876;28;20058;-69
2020/12/07 07:15:34;;;;;;;12.40;3.80;;;7.10;94.70;;;;;;5063755;28;20071;-69
2020/12/07 07:18:19;;;;;;;14.35;2.92;;;7.10;94.80;;;;;;5062598;28;20052;-69
2020/12/07 07:21:05;;;;;;;10.38;2.75;;;7.10;94.60;;;;;;5062303;28;20169;-67
2020/12/07 07:23:53;;;;;;;18.25;2.30;;;7.10;94.70;;;;;;5062260;28;20060;-69
2020/12/07 07:26:26;;;;;;;12.88;2.00;;;7.10;94.60;;;;;;5049838;28;20481;-67
2020/12/07 07:28:51;;;;;;;;;;;7.10;94.60;;;;;;5052893;28;20124;-67
2020/12/07 07:31:37;;;;;;;9.27;1.75;;;7.20;94.50;;;;;;5061553;28;20426;-67
2020/12/07 07:34:03;;;;;;;11.20;2.75;;;7.20;94.30;;;;;;5054901;28;20032;-70
2020/12/07 07:36:30;;;;;;;11.25;2.08;;;7.20;94.30;;;;;;5057148;28;20451;-68
2020/12/07 07:39:00;;;;;;;12.52;1.55;;;7.20;94.40;;;;;;5053085;28;20067;-66
2020/12/07 07:41:26;;;;;;;10.20;2.80;;;7.20;94.20;;;;;;5043857;28;20125;-68
2020/12/07 07:43:54;;;;;;;12.27;1.58;;;7.10;94.10;;;;;;5044377;28;20041;-66
2020/12/07 07:46:20;;;;;;;11.27;1.70;;;7.10;93.70;;;;;;5047933;28;20077;-67
2020/12/07 07:49:31;;;;;;;6.07;0.98;;;7.10;93.60;;;;;;5053854;28;20401;-68
2020/12/07 08:01:17;;;;;;;8.70;1.20;;;7.10;93.30;;;;;;5054873;28;20825;-67
2020/12/07 08:06:14;;;;;;;4.57;0.75;;;7.10;93.00;;;;;;5044545;28;20153;-67
2020/12/07 08:13:11;;;;;;;5.63;1.40;;;7.10;93.30;;;;;;4971267;28;20045;-67
2020/12/07 08:15:49;;;;;;;5.28;1.35;;;7.10;93.30;;;;;;4957630;28;20112;-67
2020/12/07 08:18:36;;;;;;;11.90;1.15;;;7.10;93.30;;;;;;5024680;28;20418;-67
2020/12/07 08:21:29;;;;;;;7.00;1.10;;;7.10;93.20;;;;;;5033196;28;20060;-68
2020/12/07 08:23:59;;;;;;;5.57;0.85;;;7.10;93.30;;;;;;5003631;28;20093;-68
2020/12/07 08:26:25;;;;;;;5.53;1.70;;;7.10;93.10;;;;;;5003430;28;20042;-68
2020/12/07 08:28:53;;;;;;;4.43;0.90;;;7.10;93.10;;;;;;5015594;28;20386;-68
2020/12/07 08:31:21;;;;;;;6.68;1.10;;;7.10;93.00;;;;;;5021269;28;20052;-67
2020/12/07 08:34:14;;;;;;;7.97;0.90;;;7.10;92.90;;;;;;5056579;28;20049;-68
2020/12/07 08:36:43;;;;;;;8.65;1.10;;;7.10;92.90;;;;;;5026325;28;20049;-67
2020/12/07 08:39:09;;;;;;;3.70;0.80;;;7.10;93.00;;;;;;5043732;28;20098;-68
2020/12/07 08:41:57;;;;;;;5.57;1.40;;;7.00;93.00;;;;;;5034228;28;20050;-67
2020/12/07 08:44:23;;;;;;;4.10;0.77;;;7.00;93.10;;;;;;5020957;28;20046;-68
2020/12/07 08:46:48;;;;;;;6.43;0.70;;;7.00;93.00;;;;;;5015439;28;20371;-66
2020/12/07 08:49:14;;;;;;;6.72;1.70;;;7.00;93.00;;;;;;5008146;28;20129;-68
2020/12/07 08:51:39;;;;;;;3.88;0.88;;;7.10;93.00;;;;;;5003004;28;20470;-69
2020/12/07 08:54:07;;;;;;;11.95;1.70;;;7.10;93.00;;;;;;5013646;28;20060;-67
2020/12/07 08:56:32;;;;;;;8.15;1.60;;;7.10;93.10;;;;;;5003849;28;20056;-68
2020/12/07 08:58:58;;;;;;;8.55;1.00;;;7.10;93.00;;;;;;5024060;28;20041;-68
2020/12/07 09:01:24;;;;;;;7.55;0.90;;;7.10;93.00;;;;;;5018474;28;20478;-68
2020/12/07 09:04:11;;;;;;;5.75;0.80;;;7.10;92.70;;;;;;5002697;28;20483;-68
2020/12/07 09:06:40;;;;;;;8.93;0.98;;;7.10;92.80;;;;;;5019589;28;20072;-68
2020/12/07 09:09:09;;;;;;;4.85;0.80;;;7.10;92.80;;;;;;5012080;28;20081;-69
2020/12/07 09:11:54;;;;;;;2.47;0.77;;;7.10;92.90;;;;;;5028887;28;20053;-68
2020/12/07 09:14:20;;;;;;;6.72;1.30;;;7.10;92.70;;;;;;5027445;28;20339;-68
2020/12/07 09:16:45;;;;;;;7.93;1.20;;;7.10;92.80;;;;;;5004772;28;20046;-67
2020/12/07 09:19:11;;;;;;;5.13;0.95;;;7.10;92.80;;;;;;5014650;28;20103;-67
2020/12/07 09:21:37;;;;;;;6.75;0.70;;;7.10;92.60;;;;;;5008127;28;20046;-68
2020/12/07 09:24:03;;;;;;;7.63;1.20;;;7.20;92.60;;;;;;5010586;28;20119;-69
2020/12/07 09:26:28;;;;;;;8.98;1.23;;;7.20;92.60;;;;;;5009580;28;20780;-68
2020/12/07 09:28:54;;;;;;;7.45;1.33;;;7.20;92.40;;;;;;5011070;28;20099;-68
2020/12/07 09:31:19;;;;;;;5.97;1.13;;;7.20;92.50;;;;;;5005834;28;20050;-69
2020/12/07 09:33:47;;;;;;;5.40;0.88;;;7.20;92.50;;;;;;5006742;28;20156;-67
2020/12/07 09:36:12;;;;;;;9.05;1.15;;;7.20;92.60;;;;;;5013943;28;20681;-69
2020/12/07 09:38:38;;;;;;;4.40;1.30;;;7.30;92.50;;;;;;5010554;28;20281;-68
2020/12/07 09:41:24;;;;;;;9.38;0.98;;;7.40;92.50;;;;;;5009349;28;20251;-68
2020/12/07 09:44:09;;;;;;;7.35;1.90;;;7.30;92.70;;;;;;5017893;28;20056;-68
2020/12/07 09:46:35;;;;;;;8.32;1.20;;;7.40;92.70;;;;;;5020023;28;20042;-68
2020/12/07 09:49:01;;;;;;;8.07;1.45;;;7.40;92.70;;;;;;5011722;28;20046;-68
2020/12/07 09:51:47;;;;;;;6.47;1.67;;;7.40;92.60;;;;;;5019102;28;20480;-68
2020/12/07 09:54:13;;;;;;;9.52;1.17;;;7.30;92.70;;;;;;5017012;28;20218;-68
2020/12/07 09:56:58;;;;;;;11.65;1.70;;;7.30;92.80;;;;;;5042508;28;20050;-68
2020/12/07 09:59:24;;;;;;;10.65;1.80;;;7.30;93.00;;;;;;5023616;28;20048;-68
2020/12/07 10:01:49;;;;;;;11.35;1.75;;;7.30;92.90;;;;;;5022249;28;20038;-69
2020/12/07 10:04:35;;;;;;;11.68;2.88;;;7.20;92.90;;;;;;5023322;28;20037;-69
2020/12/07 10:07:01;;;;;;;8.20;1.83;;;7.20;93.00;;;;;;5026361;28;20132;-67
2020/12/07 10:09:27;;;;;;;13.43;2.10;;;7.20;93.20;;;;;;5025148;28;20112;-67
2020/12/07 10:11:52;;;;;;;17.85;2.05;;;7.20;93.20;;;;;;5022735;28;20044;-67
2020/12/07 10:14:38;;;;;;;12.68;1.63;;;7.10;93.30;;;;;;5020493;28;20152;-67
2020/12/07 10:17:04;;;;;;;10.80;1.55;;;7.20;93.50;;;;;;5044963;28;20366;-68
2020/12/07 10:19:30;;;;;;;9.30;1.48;;;7.20;93.20;;;;;;5016786;28;20041;-68
2020/12/07 10:22:02;;;;;;;11.55;1.48;;;7.30;93.00;;;;;;5011713;28;20509;-66
2020/12/07 10:24:27;;;;;;;10.48;1.67;;;7.30;92.80;;;;;;5008995;28;20132;-67
2020/12/07 10:26:54;;;;;;;11.70;1.30;;;7.30;92.70;;;;;;5008066;28;20446;-67
2020/12/07 10:29:19;;;;;;;12.45;1.60;;;7.40;92.60;;;;;;5011876;28;20046;-68
2020/12/07 10:32:05;;;;;;;5.70;0.90;;;7.40;92.60;;;;;;5030405;28;20108;-67
2020/12/07 10:34:31;;;;;;;7.82;1.00;;;7.50;92.50;;;;;;5023348;28;20090;-67
2020/12/07 10:36:56;;;;;;;8.18;1.17;;;7.50;92.50;;;;;;5025167;28;20505;-69
2020/12/07 10:39:23;;;;;;;4.80;1.40;;;7.50;92.40;;;;;;5023339;28;20045;-69
2020/12/07 10:41:48;;;;;;;18.70;8.13;;;7.50;92.40;;;;;;5025129;28;20072;-67
2020/12/07 10:44:34;;;;;;;10.80;4.20;;;7.60;92.50;;;;;;5024390;28;20061;-68
2020/12/07 10:46:59;;;;;;;7.22;2.33;;;7.60;92.40;;;;;;5022809;28;20060;-68
2020/12/07 10:49:25;;;;;;;8.32;1.65;;;7.50;92.70;;;;;;5021425;28;20049;-67
2020/12/07 10:51:50;;;;;;;7.65;1.30;;;7.50;92.80;;;;;;5025004;28;20054;-67
2020/12/07 10:54:36;;;;;;;5.95;0.93;;;7.50;92.90;;;;;;5027281;28;20049;-68
2020/12/07 10:57:02;;;;;;;12.98;1.77;;;7.40;93.20;;;;;;5018638;28;20657;-68
2020/12/07 10:59:27;;;;;;;7.85;1.25;;;7.30;93.60;;;;;;5020734;28;20041;-67
2020/12/07 11:01:54;;;;;;;7.53;1.27;;;7.40;93.50;;;;;;5019691;28;20513;-68
2020/12/07 11:04:20;;;;;;;15.90;1.58;;;7.30;93.50;;;;;;5021948;28;20041;-68
2020/12/07 11:06:48;;;;;;;4.35;1.27;;;7.30;93.50;;;;;;5022645;28;20042;-67
2020/12/07 11:09:17;;;;;;;5.03;1.30;;;7.30;93.60;;;;;;5011730;28;20045;-70
2020/12/07 11:11:45;;;;;;;10.98;1.35;;;7.20;93.90;;;;;;5009319;28;20061;-68
2020/12/07 11:14:31;;;;;;;8.45;2.42;;;7.20;93.80;;;;;;5013052;28;20069;-67
2020/12/07 11:16:59;;;;;;;4.88;1.00;;;7.20;93.80;;;;;;5009504;28;20739;-67
2020/12/07 11:19:45;;;;;;;14.68;3.28;;;7.20;93.90;;;;;;5014173;28;20506;-66
2020/12/07 11:22:11;;;;;;;10.77;1.88;;;7.30;93.80;;;;;;5016948;28;20208;-68
2020/12/07 11:24:38;;;;;;;13.75;2.13;;;7.20;93.80;;;;;;5016968;28;20128;-67
2020/12/07 11:27:24;;;;;;;11.85;1.65;;;7.20;93.90;;;;;;5013308;28;20195;-68
2020/12/07 11:29:50;;;;;;;14.18;2.30;;;7.20;93.70;;;;;;5013596;28;20049;-68
2020/12/07 11:32:35;;;;;;;14.68;1.70;;;7.20;93.20;;;;;;5021622;28;20402;-67
2020/12/07 11:35:01;;;;;;;6.68;1.33;;;7.30;93.20;;;;;;5014311;28;20042;-67
2020/12/07 11:37:53;;;;;;;11.02;1.50;;;7.40;93.00;;;;;;5004201;28;20062;-67
2020/12/07 11:43:37;;;;;;;8.40;1.40;;;7.40;93.00;;;;;;5024021;28;20225;-67
2020/12/07 11:46:03;;;;;;;15.05;2.67;;;7.30;93.30;;;;;;5021176;28;20286;-67
2020/12/07 11:48:29;;;;;;;10.60;1.90;;;7.30;93.50;;;;;;5023931;28;20056;-69
2020/12/07 11:51:14;;;;;;;10.63;1.33;;;7.30;93.70;;;;;;5013233;28;20081;-68
2020/12/07 11:54:00;;;;;;;9.38;3.25;;;7.70;93.20;;;;;;5033677;28;20166;-68
2020/12/07 11:56:37;;;;;;;9.20;1.98;;;7.50;93.10;;;;;;5017601;28;20053;-68
2020/12/07 11:59:03;;;;;;;10.05;1.85;;;7.40;93.00;;;;;;5013286;28;20069;-67
2020/12/07 12:01:49;;;;;;;8.10;2.22;;;7.40;92.70;;;;;;5003397;28;20060;-68
2020/12/07 12:04:15;;;;;;;7.13;1.13;;;7.40;92.10;;;;;;5021417;28;20128;-67
2020/12/07 12:06:42;;;;;;;13.23;1.40;;;7.50;92.00;;;;;;5021414;28;20120;-68
2020/12/07 12:09:12;;;;;;;7.30;1.50;;;7.40;92.10;;;;;;5005184;28;20045;-68
2020/12/07 12:11:39;;;;;;;8.65;2.28;;;7.20;92.20;;;;;;5022668;28;20053;-68
2020/12/07 12:14:24;;;;;;;19.30;2.40;;;7.30;92.30;;;;;;5002924;28;20148;-67
2020/12/07 12:17:10;;;;;;;13.40;2.40;;;7.30;92.50;;;;;;5012773;28;20486;-68
2020/12/07 12:19:36;;;;;;;13.45;1.98;;;7.30;92.50;;;;;;5003542;28;20124;-67
2020/12/07 12:22:01;;;;;;;13.52;1.95;;;7.40;92.40;;;;;;5011011;28;20391;-67
2020/12/07 12:24:27;;;;;;;11.85;2.00;;;7.40;92.60;;;;;;5022792;28;20079;-67
2020/12/07 12:26:52;;;;;;;18.65;4.65;;;7.50;92.50;;;;;;5018901;28;20100;-68
2020/12/07 12:29:38;;;;;;;15.00;2.35;;;7.40;92.50;;;;;;5003045;28;20092;-69
2020/12/07 12:32:04;;;;;;;13.27;3.22;;;7.40;92.70;;;;;;5047752;28;20149;-67
2020/12/07 12:34:49;;;;;;;10.07;2.90;;;7.40;92.60;;;;;;5023131;28;20049;-69
2020/12/07 12:37:35;;;;;;;17.08;5.47;;;7.40;92.40;;;;;;5036144;28;20111;-69
2020/12/07 12:40:00;;;;;;;15.07;3.42;;;7.40;93.00;;;;;;5023233;28;20462;-69
2020/12/07 12:42:47;;;;;;;15.13;2.75;;;7.40;92.50;;;;;;5008844;28;20136;-68
2020/12/07 12:45:32;;;;;;;17.05;2.30;;;7.50;92.40;;;;;;5017708;28;20608;-69
2020/12/07 12:48:18;;;;;;;11.57;3.05;;;7.40;92.50;;;;;;5020684;28;20126;-69
2020/12/07 12:50:43;;;;;;;12.77;1.70;;;7.40;92.40;;;;;;5021078;28;20592;-69
2020/12/07 12:53:30;;;;;;;10.50;1.60;;;7.30;92.20;;;;;;5002133;28;20517;-68
2020/12/07 12:55:56;;;;;;;10.25;1.75;;;7.20;91.90;;;;;;5002741;28;20050;-69
2020/12/07 12:58:42;;;;;;;6.85;1.35;;;7.20;91.80;;;;;;5003448;28;20050;-69
2020/12/07 13:01:27;;;;;;;9.15;1.23;;;7.30;91.90;;;;;;5033808;28;20073;-68
2020/12/07 13:03:53;;;;;;;9.93;1.30;;;7.30;91.80;;;;;;5014580;28;20096;-68
2020/12/07 13:06:19;;;;;;;7.18;2.03;;;7.20;91.90;;;;;;5003819;28;20056;-69
2020/12/07 13:09:05;;;;;;;9.23;1.35;;;7.20;92.20;;;;;;5029505;28;20491;-68
2020/12/07 13:11:32;;;;;;;5.10;1.00;;;7.20;91.80;;;;;;5002596;28;20050;-69
2020/12/07 13:13:58;;;;;;;5.00;0.90;;;7.20;92.20;;;;;;5008869;28;20175;-69
2020/12/07 13:16:28;;;;;;;12.23;1.10;;;7.20;91.90;;;;;;5011192;28;20136;-68
2020/12/07 13:18:56;;;;;;;8.07;1.40;;;7.20;91.80;;;;;;5023254;28;20077;-68
2020/12/07 13:21:50;;;;;;;6.35;0.82;;;7.20;91.90;;;;;;5012058;28;20129;-69
2020/12/07 13:30:24;;;;;;;5.75;0.75;;;7.30;91.40;;;;;;5006919;28;20512;-69
2020/12/07 13:32:50;;;;;;;6.70;1.20;;;7.30;91.10;;;;;;5021697;28;20132;-69
2020/12/07 13:35:16;;;;;;;6.65;1.00;;;7.30;91.00;;;;;;5023011;28;20132;-69
2020/12/07 13:37:41;;;;;;;5.55;0.80;;;7.40;91.00;;;;;;5021525;28;20069;-69
2020/12/07 13:40:27;;;;;;;4.57;0.93;;;7.40;90.80;;;;;;5013281;28;20934;-69
2020/12/07 13:42:53;;;;;;;7.97;1.00;;;7.30;91.00;;;;;;5003721;28;20078;-69